Terminal Aerodrome Forecast
Issued by NWS

Home | Current Version | Previous Version | Text Only | Print | Product List | Glossary On
Versions: 1 2 3 4 5 6 7 8 9 10 11 12 13 14 15 16 17 18
897
FTUS43 KIND 231720
TAFBMG
TAF
KBMG 231720Z 2318/2418 14007KT P6SM FEW050 SCT250
     FM240500 VRB03KT P6SM VCSH OVC090
     FM241100 VRB03KT 3SM SHRA OVC020
     FM241400 30004KT 4SM SHRA OVC015
     FM241500 27004KT 4SM SHRA OVC020=

USA.gov is the U.S. government's official web portal to all federal, state and local government web resources and services.